• Join FlightAware (Why Join?)
  • Login
  • US Flag 
Gobble Gobble! 
09:35AM EST


 

Airport Tracker/Info


-or-


 

Live Flight TrackerFlight Track Log ✈ N98RD ✈ 05-Aug-2013 ✈ KHOT - KPTS

Flight Track Log - Related Links

Times and Time Zones

All times are in EDT time to prevent confusion due to time zone crossing. See the N98RD flight status page for this flight to view local times or setup timezone preferences in your user account.

Time Position Orientation Groundspeed Altitude Reporting Facility
EDT Latitude Longitude Course Direction KTS MPH feet Rate Location/Type
03:58PM 34.6242 -93.2167 335° Northwest 208 239 3,800  Level Memphis Center
03:59PM 34.6633 -93.2356 338° Northwest 173 199 4,500 780 Climbing Memphis Center
04:00PM 34.7006 -93.2544 337° Northwest 151 174 5,400 840 Climbing Memphis Center
04:01PM 34.7397 -93.2736 338° Northwest 151 174 6,200 780 Climbing Memphis Center
04:02PM 34.7789 -93.2950 336° Northwest 151 174 7,000 720 Climbing Memphis Center
04:03PM 34.7589 -93.2408 335° Northwest  Level FlightAware Approximate
04:03PM 34.8200 -93.3142 339° North 151 174 7,700  Level Memphis Center
04:04PM 34.8074 -93.2685 335° Northwest  Level FlightAware Approximate
04:04PM 34.8614 -93.3358 337° Northwest 151 174 8,400  Level Memphis Center
04:05PM 34.9006 -93.3575 336° Northwest 156 180 9,300 840 Climbing Memphis Center
04:06PM 34.9397 -93.3767 338° Northwest 156 180 10,100 780 Climbing Memphis Center
04:07PM 34.9808 -93.3983 337° Northwest 151 174 10,900 720 Climbing Memphis Center
04:08PM 35.0178 -93.4200 334° Northwest 151 174 11,600 480 Climbing Memphis Center
04:09PM 35.0631 -93.4419 338° Northwest 161 185 11,900 180 Climbing Memphis Center
04:10PM 35.1125 -93.4667 338° Northwest 174 200 12,000  Climbing Memphis Center
04:11PM 35.1661 -93.4942 337° Northwest 189 217 11,900  Descending Memphis Center
04:12PM 35.2217 -93.5242 336° Northwest 203 234 12,000  Climbing Memphis Center
04:13PM 35.2772 -93.5542 336° Northwest 214 246 12,000 -60 Level Memphis Center
04:14PM 35.3308 -93.5842 335° Northwest 214 246 11,900  Descending Memphis Center
04:15PM 35.3864 -93.6117 338° Northwest 214 246 12,000  Climbing Memphis Center
04:16PM 35.4397 -93.6419 335° Northwest 214 246 12,000  Level Memphis Center
04:17PM 35.4953 -93.6697 338° Northwest 214 246 12,000  Level Memphis Center
04:18PM 35.5508 -93.7000 336° Northwest 214 246 12,000  Level Memphis Center
04:19PM 35.6083 -93.7303 337° Northwest 214 246 12,000  Level Memphis Center
04:20PM 35.6639 -93.7581 338° Northwest 214 246 12,000  Level Memphis Center
04:21PM 35.7194 -93.7911 334° Northwest 214 246 12,000  Level Memphis Center
04:22PM 35.7750 -93.8189 338° Northwest 214 246 12,000  Level Memphis Center
04:23PM 35.8283 -93.8467 337° Northwest 214 246 12,000  Level Memphis Center
04:24PM 35.8817 -93.8772 335° Northwest 214 246 12,000  Level Memphis Center
04:25PM 35.9372 -93.9053 338° Northwest 214 246 12,000  Level Memphis Center
04:26PM 35.9906 -93.9331 337° Northwest 214 246 12,000  Level Memphis Center
04:27PM 36.0439 -93.9636 335° Northwest 214 246 12,000  Level Memphis Center
04:28PM 36.0975 -93.9917 337° Northwest 214 246 12,000  Level Memphis Center
04:29PM 36.1508 -94.0197 337° Northwest 214 246 12,000  Level Memphis Center
04:30PM 36.2019 -94.0503 334° Northwest 214 246 12,000  Level Memphis Center
04:32PM 36.2861 -94.0928 338° Northwest 208 239 12,000  Level Kansas City Center
04:33PM 36.3397 -94.1211 337° Northwest 208 239 12,000  Level Kansas City Center
04:34PM 36.3950 -94.1492 338° Northwest 210 242 12,000  Level Kansas City Center
04:35PM 36.4572 -94.1836 336° Northwest 209 241 12,000  Level Kansas City Center
04:36PM 36.5061 -94.2103 336° Northwest 203 234 12,000  Level Kansas City Center
04:37PM 36.5547 -94.2361 337° Northwest 197 227 12,000  Level Kansas City Center
04:38PM 36.6028 -94.2642 335° Northwest 194 223 12,000 -60 Level Kansas City Center
04:39PM 36.6536 -94.2917 337° Northwest 194 223 11,900  Descending Kansas City Center
04:40PM 36.7028 -94.3183 336° Northwest 194 223 12,000  Climbing Kansas City Center
04:41PM 36.7522 -94.3450 337° Northwest 194 223 12,000  Level Kansas City Center
04:42PM 36.8114 -94.3783 336° Northwest 194 223 12,000 -300 Level Kansas City Center
04:43PM 36.8625 -94.4050 337° Northwest 195 224 11,400 -780 Descending Kansas City Center
04:44PM 36.9175 -94.4347 337° Northwest 203 234 10,500 -840 Descending Kansas City Center
04:45PM 36.9764 -94.4669 336° Northwest 218 251 9,700 -960 Descending Kansas City Center
04:46PM 37.0344 -94.4997 336° Northwest 226 260 8,600 -1,260 Descending Kansas City Center
04:47PM 37.0914 -94.5308 336° Northwest 226 260 7,100 -1,800 Descending Kansas City Center
04:48PM 37.1611 -94.5694 336° Northwest 227 261 5,000 -1,560 Descending Kansas City Center
04:49PM 37.2181 -94.6022 335° Northwest 227 261 3,900 -900 Descending Kansas City Center
04:50PM 37.2736 -94.6336 336° Northwest 224 258 3,200 -720 Descending Kansas City Center